Data for 09/07/2016

Time Sea-Level Adjusted Pressure Absolute Pressure Temperature Relative Humidity Dew Point   
(mb) (inHg) (mb) (inHg) (C) (F) (%) (C) (F)
00:05 1017 30.03 846 24.98 12.2 54 55 3.6 38.5
00:10 1017 30.03 846 24.98 12 53.6 56 3.6 38.4
00:15 1017 30.03 847 25.01 11.8 53.3 57 3.5 38.4
00:20 1017 30.03 847 25.01 11.7 53 58 3.6 38.5
00:25 1018 30.06 847 25.01 11.5 52.6 59 3.8 38.9
00:30 1018 30.06 847 25.01 11.1 52 61 4 39.1
00:35 1018 30.06 847 25.01 10.7 51.3 62 3.9 39
00:40 1018 30.06 847 25.01 10.5 50.9 64 4 39.1
00:45 1018 30.06 847 25.01 10.4 50.7 65 4 39.3
00:50 1018 30.06 847 25.01 10.3 50.5 65 3.9 39.1
00:55 1018 30.06 847 25.01 10.2 50.4 65 4.1 39.3
01:00 1018 30.06 847 25.01 10.2 50.3 66 4.1 39.4
01:05 1018 30.06 847 25.01 10.1 50.1 66 4 39.1
01:10 1018 30.06 847 25.01 10.1 50.1 65 3.9 39
01:15 1018 30.06 848 25.04 10.1 50.1 66 4 39.2
01:20 1018 30.06 848 25.04 10 50 66 4 39.2
01:25 1018 30.06 848 25.04 9.9 49.9 66 4 39.2
01:30 1018 30.06 848 25.04 9.9 49.8 67 4 39.2
01:35 1018 30.06 848 25.04 9.9 49.8 66 3.9 39.1
01:40 1018 30.06 848 25.04 9.9 49.9 66 3.9 39.1
01:45 1018 30.06 848 25.04 10 49.9 66 3.9 39
01:50 1018 30.06 848 25.04 10.1 50.1 65 3.8 38.8
01:55 1018 30.06 848 25.04 10.2 50.3 65 3.9 39.1
02:00 1018 30.06 848 25.04 10.2 50.3 66 4.1 39.5
02:05 1018 30.06 848 25.04 10.1 50.2 67 4.4 39.9
02:10 1018 30.06 848 25.04 10.1 50.1 67 4.3 39.7
02:15 1018 30.06 848 25.04 10 50 68 4.5 40
02:20 1018 30.06 848 25.04 10 50 69 4.5 40.1
02:25 1018 30.06 848 25.04 9.9 49.9 69 4.5 40
02:30 1018 30.06 848 25.04 9.9 49.9 69 4.5 40.1
02:35 1018 30.06 848 25.04 10 50.1 69 4.7 40.5
02:40 1018 30.06 848 25.04 10.1 50.1 69 4.7 40.4
02:45 1018 30.06 848 25.04 10.1 50.1 69 4.8 40.6
02:50 1018 30.06 848 25.04 10.1 50.3 70 4.9 40.9
02:55 1018 30.06 848 25.04 10.1 50.2 70 4.9 40.9
03:00 1018 30.06 847 25.01 10.2 50.3 65 4 39.2
03:05 1018 30.06 847 25.01 10.5 50.9 64 4 39.3
03:10 1018 30.06 848 25.04 10.5 50.8 64 4 39.1
03:15 1018 30.06 848 25.04 10.5 50.9 66 4.4 40
03:20 1018 30.06 848 25.04 10.7 51.2 66 4.6 40.2
03:25 1019 30.09 848 25.04 10.7 51.2 67 4.8 40.7
03:30 1019 30.09 848 25.04 10.7 51.2 67 4.8 40.6
03:35 1019 30.09 848 25.04 10.6 51.1 71 5.5 42
03:40 1019 30.09 848 25.04 10.3 50.6 73 5.8 42.4
03:45 1019 30.09 848 25.04 9.9 49.8 76 5.9 42.6
03:50 1019 30.09 848 25.04 9.7 49.4 77 5.9 42.6
03:55 1019 30.09 848 25.04 9.6 49.2 78 6 42.8
04:00 1019 30.09 848 25.04 9.4 49 80 6.1 43
04:05 1019 30.09 848 25.04 9.3 48.8 80 6 42.8
04:10 1019 30.09 848 25.04 9.3 48.7 80 6.1 42.9
04:15 1019 30.09 848 25.04 9.2 48.6 81 6.1 43
04:20 1019 30.09 849 25.07 9.1 48.5 81 6.1 42.9
04:25 1019 30.09 849 25.07 9 48.3 83 6.2 43.2
04:30 1019 30.09 849 25.07 9 48.1 82 6.2 43.1
04:35 1019 30.09 849 25.07 8.9 48 83 6.2 43.1
04:40 1020 30.12 849 25.07 8.8 47.9 83 6.2 43.1
04:45 1020 30.12 849 25.07 8.8 47.8 84 6.2 43.2
04:50 1020 30.12 849 25.07 8.6 47.5 85 6.2 43.2
04:55 1020 30.12 849 25.07 8.5 47.3 85 6 42.9
05:00 1020 30.12 849 25.07 8.5 47.2 85 6.1 43.1
05:05 1020 30.12 849 25.07 8.5 47.2 85 6.1 43
05:10 1020 30.12 849 25.07 8.4 47.2 85 6.1 43
05:15 1020 30.12 849 25.07 8.4 47.2 86 6.2 43.1
05:20 1020 30.12 849 25.07 8.4 47.2 84 5.9 42.6
05:25 1020 30.12 849 25.07 8.5 47.2 84 5.9 42.6
05:30 1020 30.12 849 25.07 8.5 47.4 84 6 42.9
05:35 1020 30.12 849 25.07 8.5 47.4 85 6.2 43.1
05:40 1020 30.12 849 25.07 8.5 47.3 85 6.2 43.1
05:45 1020 30.12 849 25.07 8.5 47.3 85 6.1 43
05:50 1020 30.12 849 25.07 8.5 47.4 85 6.1 43
05:55 1020 30.12 849 25.07 8.6 47.4 85 6.1 43
06:00 1020 30.12 849 25.07 8.6 47.4 85 6.2 43.1
06:05 1020 30.12 849 25.07 8.7 47.6 86 6.4 43.5
06:10 1020 30.12 849 25.07 8.6 47.6 85 6.3 43.4
06:15 1020 30.12 849 25.07 8.7 47.6 85 6.3 43.3
06:20 1020 30.12 849 25.07 8.6 47.5 86 6.4 43.5
06:25 1020 30.12 849 25.07 8.4 47.2 87 6.5 43.7
06:30 1020 30.12 849 25.07 8.5 47.2 87 6.5 43.6
06:35 1020 30.12 849 25.07 8.5 47.3 87 6.4 43.6
06:40 1020 30.12 849 25.07 8.5 47.3 86 6.3 43.3
06:45 1020 30.12 849 25.07 8.5 47.3 86 6.3 43.3
06:50 1020 30.12 849 25.07 8.4 47.1 87 6.4 43.5
06:55 1020 30.12 849 25.07 8.3 46.9 87 6.3 43.3
07:00 1020 30.12 850 25.1 8.3 46.9 87 6.3 43.3
07:05 1020 30.12 850 25.1 8.4 47.1 87 6.4 43.4
07:10 1020 30.12 850 25.1 8.5 47.3 86 6.3 43.3
07:15 1021 30.15 850 25.1 8.4 47.2 87 6.3 43.4
07:20 1021 30.15 850 25.1 8.4 47 87 6.4 43.5
07:25 1021 30.15 850 25.1 8.4 47.1 87 6.3 43.4
07:30 1021 30.15 850 25.1 8.5 47.3 86 6.3 43.3
07:35 1021 30.15 850 25.1 8.7 47.6 86 6.5 43.7
07:40 1021 30.15 850 25.1 8.7 47.6 86 6.5 43.7
07:45 1021 30.15 850 25.1 8.7 47.6 86 6.4 43.6
07:50 1021 30.15 850 25.1 8.7 47.7 86 6.5 43.6
07:55 1021 30.15 850 25.1 8.8 47.8 85 6.4 43.6
08:00 1021 30.15 850 25.1 8.8 47.9 85 6.4 43.5
08:05 1021 30.15 850 25.1 9 48.1 84 6.3 43.4
08:10 1021 30.15 850 25.1 9 48.2 83 6.3 43.3
08:15 1021 30.15 850 25.1 9.1 48.4 82 6.2 43.1
08:20 1021 30.15 850 25.1 9.2 48.6 80 6 42.8
08:25 1021 30.15 850 25.1 9.4 49 80 6.1 43
08:30 1021 30.15 850 25.1 9.6 49.3 79 6.1 43.1
08:35 1021 30.15 850 25.1 9.8 49.6 78 6.1 43
08:40 1021 30.15 850 25.1 9.8 49.6 77 6 42.8
08:45 1021 30.15 850 25.1 9.8 49.7 77 5.9 42.7
08:50 1021 30.15 850 25.1 10.3 50.5 75 6.1 42.9
08:55 1021 30.15 850 25.1 10.7 51.2 71 5.6 42.1
09:00 1021 30.15 850 25.1 11.2 52.1 68 5.5 42
09:05 1021 30.15 850 25.1 11.4 52.5 67 5.5 41.9
09:10 1021 30.15 850 25.1 12.2 54 62 5.3 41.5
09:15 1021 30.15 851 25.13 12.6 54.6 62 5.5 41.8
09:20 1021 30.15 851 25.13 13 55.3 57 4.7 40.4
09:25 1021 30.15 851 25.13 12.8 55.1 56 4.4 39.9
09:30 1021 30.15 851 25.13 12.8 55 58 4.7 40.5
09:35 1022 30.18 851 25.13 12.3 54.1 60 4.8 40.6
09:40 1021 30.15 851 25.13 12.2 53.9 60 4.7 40.4
09:45 1022 30.18 851 25.13 12.6 54.8 57 4.4 39.9
09:50 1022 30.18 851 25.13 13.2 55.8 55 4.5 40.1
09:55 1022 30.18 851 25.13 13.1 55.6 56 4.6 40.3
10:00 1022 30.18 851 25.13 12.5 54.5 57 4.2 39.5
10:05 1022 30.18 851 25.13 12.8 55.1 56 4.3 39.7
10:10 1022 30.18 851 25.13 13.8 56.8 51 3.9 39
10:15 1022 30.18 851 25.13 14.2 57.6 51 4.2 39.6
10:20 1022 30.18 851 25.13 14.2 57.5 50 4 39.2
10:25 1022 30.18 851 25.13 14.9 58.8 51 4.9 40.7
10:30 1022 30.18 851 25.13 14.8 58.7 48 4.1 39.3
10:35 1022 30.18 851 25.13 14.9 58.9 49 4.3 39.7
10:40 1022 30.18 851 25.13 14.8 58.7 48 3.9 39.1
10:45 1022 30.18 851 25.13 13.7 56.7 54 4.6 40.2
10:50 1022 30.18 851 25.13 13.1 55.5 54 4.1 39.4
10:55 1022 30.18 851 25.13 13.3 55.9 55 4.4 39.9
11:00 1022 30.18 851 25.13 13.6 56.6 51 3.7 38.7
11:05 1022 30.18 851 25.13 13.7 56.6 52 4 39.3
11:10 1022 30.18 851 25.13 13.8 56.9 51 3.9 38.9
11:15 1022 30.18 851 25.13 14.3 57.7 50 4 39.2
11:20 1022 30.18 851 25.13 14.1 57.4 51 4.2 39.6
11:25 1022 30.18 851 25.13 13.8 56.9 52 4.3 39.8
11:30 1022 30.18 851 25.13 13.7 56.7 51 3.8 38.9
11:35 1022 30.18 851 25.13 13.7 56.6 51 3.9 39
11:40 1022 30.18 851 25.13 14.1 57.3 49 3.7 38.7
11:45 1022 30.18 851 25.13 14 57.1 51 4.2 39.6
11:50 1022 30.18 851 25.13 14.4 57.9 49 4 39.2
11:55 1022 30.18 851 25.13 14.8 58.6 46 3.5 38.2
12:00 1022 30.18 851 25.13 15.3 59.6 46 3.8 38.8
12:05 1022 30.18 851 25.13 15.3 59.5 47 4 39.2
12:10 1022 30.18 851 25.13 15.1 59.2 45 3.5 38.3
12:15 1022 30.18 851 25.13 15.8 60.4 44 3.6 38.4
12:20 1021 30.15 851 25.13 15.4 59.8 47 4.3 39.7
12:25 1022 30.18 851 25.13 15.6 60 45 3.9 39
12:30 1022 30.18 851 25.13 15.7 60.3 44 3.5 38.4
12:35 1022 30.18 851 25.13 15.7 60.2 44 3.4 38.1
12:40 1022 30.18 851 25.13 15.5 60 43 3.2 37.8
12:45 1022 30.18 851 25.13 15.3 59.6 44 3.1 37.6
12:50 1022 30.18 851 25.13 16 60.8 40 2.6 36.8
12:55 1022 30.18 851 25.13 16 60.8 42 3.1 37.5
13:00 1022 30.18 851 25.13 15.6 60.1 42 2.8 37
13:05 1022 30.18 851 25.13 15.7 60.3 41 2.5 36.5
13:10 1022 30.18 851 25.13 16.2 61.2 40 2.6 36.6
13:15 1022 30.18 851 25.13 16.7 62 39 2.7 36.9
13:20 1021 30.15 851 25.13 16.5 61.7 39 2.8 37
13:25 1021 30.15 850 25.1 16.6 61.9 41 3.4 38.2
13:30 1021 30.15 850 25.1 16.8 62.2 40 3.3 38
13:35 1021 30.15 850 25.1 17.6 63.6 37 2.8 37.1
13:40 1021 30.15 850 25.1 17.5 63.5 36 2.3 36.1
13:45 1021 30.15 850 25.1 17.6 63.6 37 2.8 37.1
13:50 1021 30.15 850 25.1 17.5 63.4 36 2.4 36.4
13:55 1021 30.15 850 25.1 18 64.4 35 2.4 36.3
14:00 1021 30.15 850 25.1 17.9 64.1 34 1.7 35.1
14:05 1021 30.15 850 25.1 18.3 64.9 33 2 35.5
14:10 1021 30.15 850 25.1 18.5 65.3 33 2.2 36
14:15 1021 30.15 850 25.1 17.8 64 35 2.4 36.4
14:20 1021 30.15 850 25.1 17 62.5 36 1.8 35.3
14:25 1021 30.15 850 25.1 17.5 63.5 34 1.4 34.5
14:30 1021 30.15 850 25.1 17.5 63.6 39 3.6 38.6
14:35 1021 30.15 850 25.1 16.3 61.4 38 2.1 35.8
14:40 1021 30.15 850 25.1 16.7 62.1 36 1.6 34.9
14:45 1021 30.15 850 25.1 17.8 64.1 35 2.3 36.1
14:50 1021 30.15 850 25.1 17.8 64 36 2.6 36.7
14:55 1021 30.15 850 25.1 17.5 63.5 34 1.8 35.2
15:00 1021 30.15 850 25.1 17.9 64.2 35 2.3 36.2
15:05 1021 30.15 850 25.1 18.4 65 33 2.1 35.9
15:10 1021 30.15 850 25.1 18.4 65.2 32 1.8 35.2
15:15 1021 30.15 850 25.1 18.6 65.5 32 1.8 35.2
15:20 1021 30.15 850 25.1 18.3 64.9 32 1.6 34.9
15:25 1021 30.15 850 25.1 18.1 64.5 32 1.4 34.5
15:30 1021 30.15 850 25.1 18.1 64.6 33 1.9 35.4
15:35 1021 30.15 850 25.1 17.9 64.2 31 0.8 33.5
15:40 1021 30.15 850 25.1 18.4 65 31 1.2 34.1
15:45 1021 30.15 850 25.1 18.9 66 30 1 33.9
15:50 1021 30.15 850 25.1 18.8 65.8 31 1.3 34.4
15:55 1021 30.15 850 25.1 18.8 65.8 31 1.5 34.6
16:00 1021 30.15 850 25.1 18.6 65.5 31 1.4 34.5
16:05 1020 30.12 850 25.1 18.9 66 30 1.2 34.1
16:10 1020 30.12 850 25.1 18.8 65.8 31 1.3 34.3
16:15 1020 30.12 850 25.1 18.3 64.9 31 1.1 33.9
16:20 1020 30.12 850 25.1 18.3 65 31 0.9 33.6
16:25 1020 30.12 850 25.1 18.1 64.6 30 0.3 32.6
16:30 1020 30.12 850 25.1 18.5 65.3 28 -0.1 31.8
16:35 1020 30.12 850 25.1 18.5 65.3 28 -0.1 31.8
16:40 1020 30.12 850 25.1 18.6 65.5 27 -0.4 31.2
16:45 1020 30.12 850 25.1 18.8 65.9 27 -0.6 31
16:50 1020 30.12 850 25.1 19.1 66.4 25 -1 30.3
16:55 1020 30.12 850 25.1 19.3 66.8 26 -0.7 30.7
17:00 1020 30.12 850 25.1 19.2 66.5 24 -1.8 28.7
17:05 1020 30.12 850 25.1 19 66.2 24 -2 28.3
17:10 1020 30.12 850 25.1 18.9 66 25 -1.6 29.1
17:15 1020 30.12 850 25.1 18.9 66.1 24 -1.9 28.6
17:20 1020 30.12 850 25.1 18.7 65.6 24 -2 28.4
17:25 1020 30.12 850 25.1 18.9 66 24 -1.7 29
17:30 1020 30.12 850 25.1 19.2 66.6 24 -1.6 29.1
17:35 1020 30.12 849 25.07 19 66.2 24 -2.1 28.1
17:40 1020 30.12 849 25.07 19 66.1 24 -1.9 28.6
17:45 1020 30.12 849 25.07 19 66.2 24 -2.1 28.2
17:50 1020 30.12 849 25.07 18.8 65.9 23 -2.4 27.7
17:55 1020 30.12 849 25.07 19 66.3 23 -2.4 27.7
18:00 1020 30.12 849 25.07 18.6 65.6 23 -2.5 27.4
18:05 1020 30.12 849 25.07 18.6 65.4 24 -2.3 27.8
18:10 1020 30.12 849 25.07 18.7 65.6 24 -2.2 28.1
18:15 1020 30.12 849 25.07 18.2 64.7 24 -2.5 27.5
18:20 1020 30.12 849 25.07 17.9 64.2 25 -2.1 28.2
18:25 1020 30.12 849 25.07 17.9 64.2 25 -2.2 28
18:30 1020 30.12 849 25.07 17.8 64.1 25 -2.4 27.6
18:35 1020 30.12 849 25.07 17.8 64 26 -2.1 28.3
18:40 1020 30.12 849 25.07 17.8 64 26 -2 28.4
18:45 1020 30.12 849 25.07 17.8 64 27 -1.5 29.2
18:50 1020 30.12 849 25.07 17.6 63.6 26 -2 28.4
18:55 1020 30.12 849 25.07 17.5 63.4 26 -2.1 28.3
19:00 1020 30.12 849 25.07 17.4 63.3 26 -2 28.5
19:05 1020 30.12 849 25.07 17.3 63.1 27 -1.9 28.6
19:10 1020 30.12 849 25.07 17.3 63.1 29 -0.9 30.4
19:15 1020 30.12 849 25.07 17 62.7 28 -1.6 29.2
19:20 1020 30.12 849 25.07 16.9 62.4 29 -1 30.1
19:25 1020 30.12 849 25.07 16.7 62.1 30 -1 30.2
19:30 1020 30.12 849 25.07 16.5 61.7 30 -1.1 29.9
19:35 1020 30.12 849 25.07 16.4 61.4 30 -1.1 30
19:40 1020 30.12 849 25.07 16.3 61.3 32 -0.5 31.1
19:45 1020 30.12 849 25.07 16.1 61.1 32 -0.6 30.9
19:50 1020 30.12 849 25.07 15.8 60.4 32 -0.7 30.7
19:55 1020 30.12 849 25.07 15.6 60 34 -0.1 31.8
20:00 1020 30.12 849 25.07 15.2 59.4 39 1.6 34.8
20:05 1020 30.12 849 25.07 14.3 57.7 42 1.7 35.1
20:10 1020 30.12 849 25.07 13.7 56.6 44 1.7 35
20:15 1020 30.12 849 25.07 13.2 55.8 44 1.4 34.6
20:20 1020 30.12 849 25.07 13 55.5 45 1.4 34.4
20:25 1020 30.12 849 25.07 12.8 55.1 46 1.4 34.6
20:30 1020 30.12 849 25.07 12.7 54.8 46 1.6 34.8
20:35 1020 30.12 849 25.07 12.4 54.3 48 1.8 35.3
20:40 1020 30.12 849 25.07 12.1 53.8 50 2 35.6
20:45 1020 30.12 849 25.07 12 53.5 50 1.9 35.4
20:50 1020 30.12 849 25.07 11.6 52.9 53 2.3 36.1
20:55 1020 30.12 849 25.07 11.4 52.5 51 1.7 35.1
21:00 1020 30.12 849 25.07 11.4 52.6 50 1.5 34.8
21:05 1020 30.12 849 25.07 11.4 52.6 51 1.7 35.1
21:10 1020 30.12 849 25.07 11.4 52.5 51 1.6 34.8
21:15 1020 30.12 849 25.07 11.5 52.6 50 1.4 34.5
21:20 1020 30.12 849 25.07 11.5 52.8 49 1.3 34.4
21:25 1020 30.12 849 25.07 11.6 52.8 50 1.5 34.7
21:30 1020 30.12 849 25.07 11.5 52.7 49 1.3 34.3
21:35 1020 30.12 849 25.07 11.4 52.6 51 1.6 34.9
21:40 1020 30.12 849 25.07 11.3 52.3 51 1.7 35.1
21:45 1020 30.12 849 25.07 11.1 52 52 1.8 35.2
21:50 1020 30.12 849 25.07 11 51.7 52 1.6 34.9
21:55 1019 30.09 849 25.07 10.9 51.7 53 1.8 35.3
22:00 1019 30.09 849 25.07 11 51.8 51 1.4 34.5
22:05 1019 30.09 849 25.07 11.1 51.9 52 1.5 34.7
22:10 1019 30.09 849 25.07 11.1 51.9 51 1.5 34.7
22:15 1019 30.09 849 25.07 11.1 51.9 52 1.6 35
22:20 1019 30.09 849 25.07 11 51.9 53 1.8 35.3
22:25 1019 30.09 849 25.07 11 51.9 52 1.7 35
22:30 1019 30.09 849 25.07 11 51.9 53 1.8 35.3
22:35 1019 30.09 849 25.07 10.9 51.6 53 1.8 35.3
22:40 1019 30.09 849 25.07 10.9 51.5 53 1.8 35.3
22:45 1019 30.09 849 25.07 10.9 51.6 53 1.8 35.3
22:50 1019 30.09 849 25.07 10.9 51.6 53 1.7 35
22:55 1019 30.09 849 25.07 11 51.7 50 1 33.8
23:00 1019 30.09 849 25.07 11.6 52.8 45 0.1 32.2
23:05 1019 30.09 849 25.07 12 53.7 43 -0.1 31.8
23:10 1019 30.09 849 25.07 12.2 54 42 -0.2 31.6
23:15 1019 30.09 849 25.07 12.2 54 48 1.7 35.1
23:20 1019 30.09 849 25.07 11.5 52.7 51 1.8 35.2
23:25 1019 30.09 849 25.07 11 51.8 49 0.8 33.5
23:30 1019 30.09 849 25.07 11.1 52 50 1.3 34.3
23:35 1019 30.09 849 25.07 11.1 52 51 1.3 34.4
23:40 1019 30.09 849 25.07 11.1 52 51 1.3 34.4
23:45 1019 30.09 849 25.07 11.2 52.2 49 1.1 33.9
23:50 1019 30.09 849 25.07 11.4 52.5 48 1 33.7
23:55 1019 30.09 848 25.04 11.4 52.6 50 1.4 34.4
24:00 1019 30.09 849 25.07 11.4 52.5 50 1.4 34.5